createdAt,value
2023-02-08T00:01:18.307Z,90.28
2023-02-08T00:03:47.352Z,90.59
2023-02-08T00:06:16.167Z,90.85
2023-02-08T00:08:44.790Z,90.73
2023-02-08T00:11:13.687Z,90.73
2023-02-08T00:13:43.019Z,89.75
2023-02-08T00:16:14.715Z,90.08
2023-02-08T00:18:43.119Z,89.99
2023-02-08T00:21:12.228Z,89.79
2023-02-08T00:23:40.825Z,89.39
2023-02-08T00:26:09.395Z,88.46
2023-02-08T00:28:38.014Z,87.58
2023-02-08T00:31:06.946Z,88.41
2023-02-08T00:33:36.590Z,89.14
2023-02-08T00:36:08.832Z,89.25
2023-02-08T00:38:37.424Z,89.95
2023-02-08T00:41:06.255Z,89.96
2023-02-08T00:43:34.620Z,88.95
2023-02-08T00:46:02.886Z,88.88
2023-02-08T00:48:31.761Z,89.11
2023-02-08T00:51:03.615Z,89.52
2023-02-08T00:53:32.387Z,90.27
2023-02-08T00:56:00.470Z,89.52
2023-02-08T00:58:28.583Z,89.92
2023-02-08T01:00:56.775Z,89.52
2023-02-08T01:03:25.665Z,89.37
2023-02-08T01:05:54.029Z,89.28
2023-02-08T01:08:23.545Z,89.91
2023-02-08T01:10:51.667Z,90.62
2023-02-08T01:13:20.004Z,90.25
2023-02-08T01:15:48.145Z,90.04
2023-02-08T01:18:16.830Z,91.55
2023-02-08T01:20:44.931Z,91.10
2023-02-08T01:23:13.047Z,90.13
2023-02-08T01:25:42.661Z,89.48
2023-02-08T01:28:10.766Z,89.81
2023-02-08T01:30:39.457Z,90.19
2023-02-08T01:33:07.838Z,90.89
2023-02-08T01:35:35.955Z,91.77
2023-02-08T01:38:04.063Z,91.59
2023-02-08T01:40:32.267Z,91.92
2023-02-08T01:43:01.733Z,91.33
2023-02-08T01:45:31.997Z,92.48
2023-02-08T01:48:09.431Z,92.14
2023-02-08T01:50:46.388Z,92.62
2023-02-08T01:53:15.096Z,93.09
2023-02-08T01:55:48.935Z,92.58
2023-02-08T01:58:20.682Z,91.09
2023-02-08T02:00:49.960Z,90.37
2023-02-08T02:03:20.210Z,90.60
2023-02-08T02:05:53.283Z,92.82
2023-02-08T02:08:21.683Z,93.05
2023-02-08T02:10:50.881Z,93.24
2023-02-08T02:13:22.599Z,94.00
2023-02-08T02:15:51.503Z,94.04
2023-02-08T02:18:24.767Z,93.15
2023-02-08T02:21:21.044Z,93.42
2023-02-08T02:24:30.219Z,93.17
2023-02-08T02:27:16.058Z,92.93
2023-02-08T02:30:25.082Z,92.15
2023-02-08T02:33:08.853Z,93.45
2023-02-08T02:35:45.603Z,92.85
2023-02-08T02:38:19.665Z,92.82
2023-02-08T02:40:55.624Z,93.35
2023-02-08T02:43:46.251Z,93.44
2023-02-08T02:46:28.933Z,93.75
2023-02-08T02:49:05.686Z,93.90
2023-02-08T02:51:41.556Z,94.44
2023-02-08T02:54:15.733Z,94.64
2023-02-08T02:56:47.294Z,94.81
2023-02-08T02:59:16.929Z,95.02
2023-02-08T03:01:46.484Z,95.33
2023-02-08T03:04:18.112Z,95.68
2023-02-08T03:07:01.539Z,95.40
2023-02-08T03:09:54.077Z,94.64
2023-02-08T03:12:35.598Z,93.33
2023-02-08T03:15:11.211Z,92.28
2023-02-08T03:17:55.588Z,92.86
2023-02-08T03:20:30.561Z,93.24
2023-02-08T03:23:03.926Z,93.62
2023-02-08T03:25:38.925Z,93.88
2023-02-08T03:28:15.591Z,94.68
2023-02-08T03:30:51.387Z,95.40
2023-02-08T03:33:26.971Z,95.44
2023-02-08T03:36:01.793Z,95.86
2023-02-08T03:38:35.090Z,95.61
2023-02-08T03:41:07.648Z,96.21
2023-02-08T03:43:39.934Z,96.56
2023-02-08T03:46:17.620Z,97.30
2023-02-08T03:48:51.089Z,97.28
2023-02-08T03:51:23.302Z,96.10
2023-02-08T03:53:54.801Z,95.69
2023-02-08T03:56:32.766Z,94.99
2023-02-08T03:59:05.075Z,93.67
2023-02-08T04:01:37.575Z,93.86
2023-02-08T04:04:06.149Z,94.82
2023-02-08T04:06:36.004Z,95.44
2023-02-08T04:09:04.122Z,95.81
2023-02-08T04:11:32.547Z,94.55
2023-02-08T04:14:00.747Z,94.52
2023-02-08T04:16:28.822Z,94.57
2023-02-08T04:18:56.945Z,95.12
2023-02-08T04:21:25.103Z,94.89
2023-02-08T04:23:54.622Z,94.44
2023-02-08T04:26:22.768Z,95.02
2023-02-08T04:28:50.906Z,96.30
2023-02-08T04:31:19.179Z,96.96
2023-02-08T04:33:47.311Z,97.40
2023-02-08T04:36:15.458Z,97.55
2023-02-08T04:38:43.565Z,97.35
2023-02-08T04:41:13.210Z,97.33
2023-02-08T04:43:41.285Z,96.61
2023-02-08T04:46:09.502Z,97.12
2023-02-08T04:48:37.663Z,97.16
2023-02-08T04:51:05.913Z,97.45
2023-02-08T04:53:34.929Z,97.25
2023-02-08T04:56:03.070Z,97.30
2023-02-08T04:58:32.584Z,97.35
2023-02-08T05:01:00.807Z,97.45
2023-02-08T05:03:28.925Z,97.31
2023-02-08T05:06:00.861Z,96.92
2023-02-08T05:08:29.355Z,96.76
2023-02-08T05:10:57.509Z,97.15
2023-02-08T05:13:25.810Z,96.80
2023-02-08T05:15:55.410Z,97.06
2023-02-08T05:18:23.562Z,97.66
2023-02-08T05:20:58.260Z,99.24
2023-02-08T05:23:26.507Z,99.77
2023-02-08T05:25:54.655Z,100.00
2023-02-08T05:28:22.980Z,100.00
2023-02-08T05:30:51.320Z,100.00
2023-02-08T05:33:20.877Z,99.24
2023-02-08T05:35:49.062Z,98.69
2023-02-08T05:38:17.197Z,98.51
2023-02-08T05:40:45.227Z,98.42
2023-02-08T05:43:13.340Z,97.71
2023-02-08T05:45:41.456Z,97.43
2023-02-08T05:48:09.622Z,97.02
2023-02-08T05:50:39.608Z,96.71
2023-02-08T05:53:07.922Z,96.77
2023-02-08T05:55:36.213Z,96.23
2023-02-08T05:58:04.378Z,96.21
2023-02-08T06:00:32.489Z,96.56
2023-02-08T06:03:00.659Z,96.73
2023-02-08T06:05:28.863Z,95.51
2023-02-08T06:07:58.439Z,94.12
2023-02-08T06:10:26.645Z,95.83
2023-02-08T06:12:54.765Z,96.61
2023-02-08T06:15:22.994Z,97.27
2023-02-08T06:17:51.720Z,97.62
2023-02-08T06:20:20.063Z,96.66
2023-02-08T06:22:48.386Z,96.99
2023-02-08T06:25:18.234Z,95.14
2023-02-08T06:27:46.463Z,94.93
2023-02-08T06:30:15.021Z,95.02
2023-02-08T06:32:43.236Z,95.89
2023-02-08T06:35:12.016Z,97.03
2023-02-08T06:37:40.461Z,97.45
2023-02-08T06:40:09.549Z,96.53
2023-02-08T06:42:39.187Z,93.36
2023-02-08T06:45:11.020Z,92.71
2023-02-08T06:47:40.289Z,91.70
2023-02-08T06:50:08.863Z,90.40
2023-02-08T06:52:37.544Z,89.85
2023-02-08T06:55:06.416Z,89.69
2023-02-08T06:57:34.677Z,89.47
2023-02-08T07:00:04.949Z,89.05
2023-02-08T07:02:33.868Z,88.87
2023-02-08T07:05:02.073Z,88.38
2023-02-08T07:07:30.263Z,87.38
2023-02-08T07:09:58.738Z,86.83
2023-02-08T07:12:26.945Z,87.13
2023-02-08T07:14:55.223Z,86.95
2023-02-08T07:17:24.859Z,86.73
2023-02-08T07:19:53.186Z,86.21
2023-02-08T07:22:21.612Z,86.34
2023-02-08T07:24:49.793Z,86.21
2023-02-08T07:27:17.903Z,85.52
2023-02-08T07:29:46.083Z,85.96
2023-02-08T07:32:14.352Z,85.74
2023-02-08T07:34:44.082Z,85.58
2023-02-08T07:37:12.415Z,85.93
2023-02-08T07:39:40.567Z,86.45
2023-02-08T07:42:09.823Z,86.73
2023-02-08T07:44:39.038Z,86.32
2023-02-08T07:47:07.955Z,85.64
2023-02-08T07:49:36.402Z,84.93
2023-02-08T07:52:06.138Z,84.79
2023-02-08T07:54:34.454Z,84.09
2023-02-08T07:57:03.812Z,84.00
2023-02-08T07:59:32.091Z,83.73
2023-02-08T08:02:00.373Z,84.81
2023-02-08T08:04:28.730Z,83.86
2023-02-08T08:06:56.951Z,83.42
2023-02-08T08:09:26.798Z,83.49
2023-02-08T08:11:55.080Z,83.63
2023-02-08T08:14:23.407Z,83.16
2023-02-08T08:16:51.831Z,83.14
2023-02-08T08:19:20.049Z,80.96
2023-02-08T08:21:48.309Z,80.89
2023-02-08T08:24:16.490Z,80.99
2023-02-08T08:26:46.152Z,80.99
2023-02-08T08:29:15.101Z,81.55
2023-02-08T08:31:44.958Z,82.13
2023-02-08T08:34:13.150Z,82.01
2023-02-08T08:36:41.514Z,82.03
2023-02-08T08:39:09.780Z,81.79
2023-02-08T08:41:38.208Z,80.74
2023-02-08T08:44:07.950Z,79.82
2023-02-08T08:46:36.172Z,78.60
2023-02-08T08:49:04.381Z,79.32
2023-02-08T08:51:35.419Z,78.86
2023-02-08T08:54:03.830Z,78.03
2023-02-08T08:56:32.068Z,77.29
2023-02-08T08:59:00.388Z,77.36
2023-02-08T09:01:30.649Z,77.42
2023-02-08T09:04:00.058Z,77.35
2023-02-08T09:06:28.445Z,76.46
2023-02-08T09:08:56.676Z,76.21
2023-02-08T09:11:24.998Z,75.55
2023-02-08T09:13:55.898Z,78.07
2023-02-08T09:16:25.369Z,80.26
2023-02-08T09:18:55.159Z,80.74
2023-02-08T09:21:25.596Z,81.44
2023-02-08T09:23:53.768Z,81.24
2023-02-08T09:26:22.530Z,81.63
2023-02-08T09:28:50.676Z,81.36
2023-02-08T09:31:21.665Z,81.20
2023-02-08T09:33:50.637Z,80.50
2023-02-08T09:36:21.116Z,80.39
2023-02-08T09:38:51.790Z,78.61
2023-02-08T09:41:33.996Z,79.18
2023-02-08T09:44:16.577Z,77.40
2023-02-08T09:46:51.892Z,77.34
2023-02-08T09:49:25.371Z,77.99
2023-02-08T09:52:00.301Z,74.48
2023-02-08T09:54:33.721Z,72.01
2023-02-08T09:57:07.179Z,71.83
2023-02-08T09:59:36.790Z,71.19
2023-02-08T10:02:19.460Z,69.32
2023-02-08T10:04:58.664Z,68.27
2023-02-08T10:07:29.068Z,67.99
2023-02-08T10:10:00.939Z,67.66
2023-02-08T10:12:43.175Z,66.42
2023-02-08T10:15:23.005Z,63.64
2023-02-08T10:18:10.098Z,63.78
2023-02-08T10:20:51.780Z,63.64
2023-02-08T10:23:38.660Z,61.74
2023-02-08T10:26:14.984Z,62.32
2023-02-08T10:28:59.136Z,60.82
2023-02-08T10:31:39.852Z,59.71
2023-02-08T10:34:18.907Z,57.68
2023-02-08T10:36:47.677Z,56.23
2023-02-08T10:39:19.713Z,56.96
2023-02-08T10:41:48.748Z,57.12
2023-02-08T10:44:28.189Z,56.90
2023-02-08T10:47:10.246Z,57.10
2023-02-08T10:49:44.225Z,58.51
2023-02-08T10:52:12.570Z,59.24
2023-02-08T10:54:42.227Z,58.78
2023-02-08T10:57:16.245Z,58.06
2023-02-08T10:59:50.934Z,57.85
2023-02-08T11:02:23.983Z,57.47
2023-02-08T11:05:04.304Z,57.39
2023-02-08T11:07:35.303Z,56.86
2023-02-08T11:10:25.199Z,57.58
2023-02-08T11:12:58.742Z,57.34
2023-02-08T11:15:30.780Z,58.56
2023-02-08T11:18:02.106Z,59.08
2023-02-08T11:20:36.808Z,57.09
2023-02-08T11:23:06.304Z,57.65
2023-02-08T11:25:39.262Z,56.96
2023-02-08T11:28:24.580Z,57.07
2023-02-08T11:30:58.087Z,56.07
2023-02-08T11:33:27.573Z,55.82
2023-02-08T11:36:03.155Z,56.24
2023-02-08T11:38:32.694Z,56.25
2023-02-08T11:41:05.038Z,55.66
2023-02-08T11:43:36.014Z,56.41
2023-02-08T11:46:06.239Z,57.02
2023-02-08T11:48:42.167Z,55.91
2023-02-08T11:51:13.644Z,54.89
2023-02-08T11:53:47.220Z,55.88
2023-02-08T11:56:22.505Z,56.24
2023-02-08T11:58:59.956Z,55.62
2023-02-08T12:01:30.370Z,56.48
2023-02-08T12:04:01.243Z,57.48
2023-02-08T12:06:49.929Z,55.94
2023-02-08T12:09:29.321Z,53.87
2023-02-08T12:12:07.568Z,53.94
2023-02-08T12:14:49.259Z,53.48
2023-02-08T12:17:42.637Z,53.58
2023-02-08T12:20:37.643Z,51.89
2023-02-08T12:23:36.265Z,52.07
2023-02-08T12:26:12.403Z,52.56
2023-02-08T12:28:54.480Z,52.81
2023-02-08T12:31:38.584Z,52.90
2023-02-08T12:34:15.038Z,52.79
2023-02-08T12:37:18.627Z,53.60
2023-02-08T12:40:10.674Z,52.73
2023-02-08T12:42:53.354Z,52.60
2023-02-08T12:45:55.754Z,52.03
2023-02-08T12:48:45.624Z,52.58
2023-02-08T12:51:25.008Z,52.08
2023-02-08T12:53:57.626Z,52.79
2023-02-08T12:56:31.866Z,53.17
2023-02-08T12:59:13.031Z,53.30
2023-02-08T13:01:46.569Z,53.72
2023-02-08T13:04:30.436Z,54.24
2023-02-08T13:07:02.068Z,54.36
2023-02-08T13:09:44.620Z,53.52
2023-02-08T13:12:17.303Z,53.61
2023-02-08T13:14:48.547Z,53.83
2023-02-08T13:17:23.621Z,52.49
2023-02-08T13:20:00.969Z,53.11
2023-02-08T13:22:33.529Z,54.47
2023-02-08T13:25:08.480Z,52.69
2023-02-08T13:27:37.191Z,52.97
2023-02-08T13:30:07.577Z,53.64
2023-02-08T13:32:44.318Z,52.05
2023-02-08T13:35:18.309Z,51.22
2023-02-08T13:37:52.669Z,49.93
2023-02-08T13:40:28.276Z,48.38
2023-02-08T13:43:01.499Z,48.18
2023-02-08T13:45:33.082Z,47.27
2023-02-08T13:48:04.699Z,47.41
2023-02-08T13:50:49.001Z,46.74
2023-02-08T13:53:18.911Z,44.36
2023-02-08T13:55:56.340Z,42.91
2023-02-08T13:58:59.252Z,39.99
2023-02-08T14:01:29.038Z,38.71
2023-02-08T14:04:34.538Z,37.57
2023-02-08T14:07:15.436Z,37.24
2023-02-08T14:09:50.306Z,37.46
2023-02-08T14:12:25.684Z,36.88
2023-02-08T14:15:25.920Z,34.51
2023-02-08T14:17:58.329Z,32.71
2023-02-08T14:20:39.486Z,32.32
2023-02-08T14:23:21.814Z,34.45
2023-02-08T14:25:52.323Z,35.64
2023-02-08T14:28:27.936Z,37.74
2023-02-08T14:30:59.150Z,39.45
2023-02-08T14:33:29.785Z,39.74
2023-02-08T14:36:02.083Z,39.41
2023-02-08T14:38:55.585Z,41.33
2023-02-08T14:41:47.066Z,42.25
2023-02-08T14:44:54.412Z,43.86
2023-02-08T14:47:58.771Z,45.12
2023-02-08T14:50:31.257Z,46.53
2023-02-08T14:53:07.921Z,47.01
2023-02-08T14:55:44.790Z,47.96
2023-02-08T14:58:17.300Z,48.90
2023-02-08T15:00:47.041Z,49.19
2023-02-08T15:03:19.778Z,49.50
2023-02-08T15:06:04.073Z,49.84
2023-02-08T15:08:34.529Z,51.15
2023-02-08T15:11:02.897Z,53.04
2023-02-08T15:13:31.630Z,54.47
2023-02-08T15:16:01.660Z,55.29
2023-02-08T15:18:33.347Z,56.36
2023-02-08T15:21:04.933Z,56.41
2023-02-08T15:23:34.804Z,56.77
2023-02-08T15:26:05.311Z,56.60
2023-02-08T15:28:36.429Z,55.73
2023-02-08T15:31:09.381Z,56.50
2023-02-08T15:33:40.757Z,57.17
2023-02-08T15:36:15.941Z,57.75
2023-02-08T15:38:46.335Z,58.16
2023-02-08T15:41:16.655Z,58.42
2023-02-08T15:43:44.929Z,59.15
2023-02-08T15:46:21.605Z,65.42
2023-02-08T15:48:51.450Z,64.90
2023-02-08T15:51:23.209Z,67.78
2023-02-08T15:53:55.131Z,68.69
2023-02-08T15:56:36.495Z,64.68
2023-02-08T15:59:09.088Z,64.34
2023-02-08T16:01:37.294Z,64.26
2023-02-08T16:04:12.403Z,64.20
2023-02-08T16:06:46.568Z,64.74
2023-02-08T16:09:20.160Z,64.80
2023-02-08T16:11:50.428Z,64.34
2023-02-08T16:14:24.821Z,65.02
2023-02-08T16:16:57.887Z,65.06
2023-02-08T16:19:29.666Z,65.31
2023-02-08T16:22:16.326Z,64.47
2023-02-08T16:24:47.764Z,65.16
2023-02-08T16:27:25.764Z,65.76
2023-02-08T16:29:54.458Z,66.62
2023-02-08T16:32:28.533Z,66.21
2023-02-08T16:34:56.964Z,66.34
2023-02-08T16:37:28.446Z,67.03
2023-02-08T16:39:59.548Z,66.51
2023-02-08T16:42:30.902Z,66.07
2023-02-08T16:45:18.336Z,66.23
2023-02-08T16:47:49.601Z,65.96
2023-02-08T16:50:20.315Z,64.63
2023-02-08T16:52:50.954Z,64.77
2023-02-08T16:55:23.364Z,63.91
2023-02-08T16:57:53.534Z,64.82
2023-02-08T17:00:25.589Z,64.21
2023-02-08T17:02:54.017Z,64.86
2023-02-08T17:05:24.985Z,65.24
2023-02-08T17:07:53.439Z,65.89
2023-02-08T17:10:28.914Z,66.14
2023-02-08T17:13:13.456Z,66.24
2023-02-08T17:15:46.516Z,65.83
2023-02-08T17:18:15.515Z,65.25
2023-02-08T17:20:44.682Z,65.58
2023-02-08T17:23:15.588Z,64.35
2023-02-08T17:25:46.048Z,64.81
2023-02-08T17:28:19.387Z,67.42
2023-02-08T17:30:48.990Z,67.77
2023-02-08T17:33:19.041Z,66.78
2023-02-08T17:35:51.120Z,68.51
2023-02-08T17:38:19.711Z,67.52
2023-02-08T17:40:49.293Z,67.25
2023-02-08T17:43:17.519Z,67.92
2023-02-08T17:45:46.382Z,69.38
2023-02-08T17:48:14.665Z,69.62
2023-02-08T17:50:44.283Z,69.08
2023-02-08T17:53:12.659Z,68.96
2023-02-08T17:55:43.119Z,68.58
2023-02-08T17:58:13.491Z,68.32
2023-02-08T18:00:41.816Z,68.82
2023-02-08T18:03:10.373Z,68.13
2023-02-08T18:05:38.869Z,68.26
2023-02-08T18:08:07.036Z,68.41
2023-02-08T18:10:35.198Z,68.31
2023-02-08T18:13:03.367Z,68.45
2023-02-08T18:15:32.918Z,68.26
2023-02-08T18:18:01.065Z,67.65
2023-02-08T18:20:29.164Z,67.00
2023-02-08T18:22:57.276Z,65.52
2023-02-08T18:25:25.460Z,65.47
2023-02-08T18:27:53.645Z,66.14
2023-02-08T18:30:22.819Z,66.45
2023-02-08T18:32:52.358Z,66.54
2023-02-08T18:35:20.893Z,66.49
2023-02-08T18:37:49.635Z,67.49
2023-02-08T18:40:18.525Z,66.77
2023-02-08T18:42:46.732Z,66.51
2023-02-08T18:45:14.919Z,67.15
2023-02-08T18:47:43.085Z,68.01
2023-02-08T18:50:12.837Z,69.98
2023-02-08T18:52:40.967Z,71.98
2023-02-08T18:55:09.586Z,69.44
2023-02-08T18:57:39.001Z,70.74
2023-02-08T19:00:07.993Z,71.44
2023-02-08T19:02:37.996Z,71.23
2023-02-08T19:05:08.146Z,70.54
2023-02-08T19:07:38.922Z,70.43
2023-02-08T19:10:08.678Z,71.45
2023-02-08T19:12:37.368Z,72.84
2023-02-08T19:15:05.938Z,73.09
2023-02-08T19:17:34.108Z,73.70
2023-02-08T19:20:02.267Z,74.06
2023-02-08T19:22:30.460Z,73.29
2023-02-08T19:25:00.015Z,72.25
2023-02-08T19:27:28.120Z,71.70
2023-02-08T19:29:56.561Z,72.77
2023-02-08T19:32:25.001Z,71.71
2023-02-08T19:34:53.220Z,72.11
2023-02-08T19:37:21.681Z,71.27
2023-02-08T19:39:49.952Z,71.29
2023-02-08T19:42:19.528Z,71.04
2023-02-08T19:44:47.663Z,71.86
2023-02-08T19:47:15.827Z,72.33
2023-02-08T19:49:44.554Z,72.22
2023-02-08T19:52:13.357Z,71.89
2023-02-08T19:54:41.631Z,72.10
2023-02-08T19:57:11.930Z,72.13
2023-02-08T19:59:41.928Z,71.88
2023-02-08T20:02:12.481Z,71.89
2023-02-08T20:04:41.098Z,72.00
2023-02-08T20:07:09.528Z,71.28
2023-02-08T20:09:38.395Z,71.61
2023-02-08T20:12:07.097Z,71.81
2023-02-08T20:14:35.240Z,72.17
2023-02-08T20:17:05.543Z,72.09
2023-02-08T20:19:37.403Z,71.70
2023-02-08T20:22:05.763Z,71.60
2023-02-08T20:24:34.449Z,72.53
2023-02-08T20:27:02.574Z,72.03
2023-02-08T20:29:30.884Z,72.31
2023-02-08T20:31:59.672Z,72.06
2023-02-08T20:34:29.340Z,72.24
2023-02-08T20:37:07.753Z,72.82
2023-02-08T20:39:37.284Z,75.29
2023-02-08T20:42:06.083Z,76.12
2023-02-08T20:44:34.307Z,77.27
2023-02-08T20:47:02.646Z,75.90
2023-02-08T20:49:32.550Z,75.36
2023-02-08T20:52:00.823Z,74.94
2023-02-08T20:54:29.087Z,73.96
2023-02-08T20:56:57.380Z,73.92
2023-02-08T20:59:25.580Z,73.66
2023-02-08T21:01:53.761Z,73.43
2023-02-08T21:04:23.668Z,73.67
2023-02-08T21:06:53.704Z,73.80
2023-02-08T21:09:22.389Z,74.47
2023-02-08T21:11:51.833Z,74.67
2023-02-08T21:14:21.447Z,74.26
2023-02-08T21:16:52.189Z,74.14
2023-02-08T21:19:21.712Z,73.59
2023-02-08T21:21:53.617Z,74.14
2023-02-08T21:24:23.989Z,75.12
2023-02-08T21:26:52.352Z,75.54
2023-02-08T21:29:20.859Z,76.95
2023-02-08T21:31:51.867Z,78.26
2023-02-08T21:34:20.957Z,79.28
2023-02-08T21:36:49.243Z,79.18
2023-02-08T21:39:18.816Z,79.33
2023-02-08T21:41:48.293Z,79.12
2023-02-08T21:44:16.636Z,78.40
2023-02-08T21:46:44.750Z,78.95
2023-02-08T21:49:30.539Z,80.19
2023-02-08T21:52:16.042Z,80.31
2023-02-08T21:54:45.973Z,80.18
2023-02-08T21:57:18.947Z,79.74
2023-02-08T21:59:48.564Z,81.10
2023-02-08T22:02:21.900Z,81.84
2023-02-08T22:05:08.222Z,81.95
2023-02-08T22:07:44.940Z,82.80
2023-02-08T22:10:16.542Z,82.21
2023-02-08T22:12:44.889Z,82.56
2023-02-08T22:15:15.252Z,82.88
2023-02-08T22:17:43.747Z,81.51
2023-02-08T22:20:13.197Z,80.10
2023-02-08T22:22:41.534Z,79.83
2023-02-08T22:25:10.099Z,78.87
2023-02-08T22:27:41.146Z,79.30
2023-02-08T22:30:11.521Z,79.12
2023-02-08T22:32:41.047Z,79.99
2023-02-08T22:35:09.797Z,78.77
2023-02-08T22:37:38.150Z,78.26
2023-02-08T22:40:08.006Z,78.36
2023-02-08T22:42:36.265Z,79.25
2023-02-08T22:45:06.216Z,79.63
2023-02-08T22:47:34.796Z,79.46
2023-02-08T22:50:03.147Z,79.43
2023-02-08T22:52:34.418Z,81.75
2023-02-08T22:55:04.228Z,83.81
2023-02-08T22:57:32.593Z,84.42
2023-02-08T23:00:00.872Z,84.95
2023-02-08T23:02:30.547Z,84.24
2023-02-08T23:04:58.690Z,82.13
2023-02-08T23:07:26.910Z,81.64
2023-02-08T23:09:55.046Z,82.14
2023-02-08T23:12:23.157Z,82.38
2023-02-08T23:14:51.471Z,81.81
2023-02-08T23:17:19.605Z,82.63
2023-02-08T23:19:49.137Z,84.02
2023-02-08T23:22:17.346Z,84.91
2023-02-08T23:24:45.473Z,84.53
2023-02-08T23:27:13.591Z,83.52
2023-02-08T23:29:41.731Z,82.67
2023-02-08T23:32:09.898Z,82.01
2023-02-08T23:34:38.075Z,81.38
2023-02-08T23:37:07.685Z,80.94
2023-02-08T23:39:35.798Z,83.09
2023-02-08T23:42:04.094Z,84.63
2023-02-08T23:44:32.260Z,87.28
2023-02-08T23:47:00.506Z,88.08
2023-02-08T23:49:28.702Z,88.28
2023-02-08T23:51:56.869Z,88.32
2023-02-08T23:54:26.479Z,87.45
2023-02-08T23:56:54.601Z,87.16
2023-02-08T23:59:22.733Z,88.14
